createdAt,value
2018-09-08T00:01:03.142Z,12.20
2018-09-08T00:03:30.866Z,12.10
2018-09-08T00:05:58.540Z,12.10
2018-09-08T00:08:26.254Z,12.00
2018-09-08T00:10:53.947Z,11.90
2018-09-08T00:13:21.646Z,11.80
2018-09-08T00:15:55.030Z,11.80
2018-09-08T00:18:28.277Z,11.70
2018-09-08T00:21:01.474Z,11.70
2018-09-08T00:23:35.712Z,11.70
2018-09-08T00:26:08.910Z,11.80
2018-09-08T00:28:41.477Z,11.80
2018-09-08T00:31:16.109Z,11.80
2018-09-08T00:33:44.525Z,11.70
2018-09-08T00:36:12.234Z,11.60
2018-09-08T00:38:40.434Z,11.60
2018-09-08T00:41:08.174Z,11.50
2018-09-08T00:43:36.017Z,11.50
2018-09-08T00:46:03.761Z,11.60
2018-09-08T00:48:31.550Z,11.60
2018-09-08T00:50:59.777Z,11.50
2018-09-08T00:53:27.500Z,11.50
2018-09-08T00:55:55.265Z,11.40
2018-09-08T00:58:22.963Z,11.40
2018-09-08T01:00:50.654Z,11.40
2018-09-08T01:03:18.418Z,11.40
2018-09-08T01:05:46.224Z,11.40
2018-09-08T01:08:13.895Z,11.30
2018-09-08T01:10:42.084Z,11.40
2018-09-08T01:13:09.875Z,11.40
2018-09-08T01:15:37.902Z,11.30
2018-09-08T01:18:05.925Z,11.30
2018-09-08T01:20:33.623Z,11.30
2018-09-08T01:23:01.422Z,11.30
2018-09-08T01:25:29.142Z,11.30
2018-09-08T01:27:56.813Z,11.30
2018-09-08T01:30:24.502Z,11.30
2018-09-08T01:32:52.176Z,11.30
2018-09-08T01:35:19.951Z,11.30
2018-09-08T01:37:47.631Z,11.20
2018-09-08T01:40:15.302Z,11.20
2018-09-08T01:42:43.056Z,11.20
2018-09-08T01:45:10.769Z,11.20
2018-09-08T01:47:38.601Z,11.10
2018-09-08T01:50:06.521Z,11.10
2018-09-08T01:52:34.202Z,11.10
2018-09-08T01:55:17.872Z,11.00
2018-09-08T01:57:45.542Z,11.00
2018-09-08T02:00:13.275Z,11.00
2018-09-08T02:02:40.978Z,11.00
2018-09-08T02:05:08.688Z,10.90
2018-09-08T02:07:36.677Z,11.00
2018-09-08T02:10:04.526Z,10.90
2018-09-08T02:12:32.231Z,10.90
2018-09-08T02:14:59.947Z,10.90
2018-09-08T02:17:27.646Z,10.90
2018-09-08T02:19:55.310Z,10.90
2018-09-08T02:22:23.140Z,10.80
2018-09-08T02:24:51.871Z,10.70
2018-09-08T02:27:19.575Z,10.70
2018-09-08T02:29:47.246Z,10.60
2018-09-08T02:32:14.969Z,10.60
2018-09-08T02:34:42.615Z,10.70
2018-09-08T02:37:10.459Z,10.60
2018-09-08T02:39:38.167Z,10.60
2018-09-08T02:42:06.122Z,10.60
2018-09-08T02:44:36.845Z,10.60
2018-09-08T02:47:06.552Z,10.60
2018-09-08T02:50:39.946Z,10.60
2018-09-08T02:53:08.398Z,10.60
2018-09-08T02:55:35.161Z,10.70
2018-09-08T02:58:01.816Z,10.60
2018-09-08T03:00:29.329Z,10.60
2018-09-08T03:02:56.138Z,10.60
2018-09-08T03:05:22.995Z,10.60
2018-09-08T03:07:49.678Z,10.60
2018-09-08T03:10:16.669Z,10.60
2018-09-08T03:12:45.223Z,10.60
2018-09-08T03:15:11.810Z,10.50
2018-09-08T03:17:38.475Z,10.50
2018-09-08T03:20:05.069Z,10.40
2018-09-08T03:22:32.040Z,10.40
2018-09-08T03:24:58.596Z,10.40
2018-09-08T03:27:25.202Z,10.30
2018-09-08T03:29:56.591Z,10.30
2018-09-08T03:32:23.329Z,10.30
2018-09-08T03:34:49.895Z,10.30
2018-09-08T03:37:16.473Z,10.20
2018-09-08T03:39:43.158Z,10.10
2018-09-08T03:42:09.756Z,10.20
2018-09-08T03:44:36.438Z,10.20
2018-09-08T03:47:03.030Z,10.20
2018-09-08T03:49:29.585Z,10.20
2018-09-08T03:51:56.579Z,10.20
2018-09-08T03:54:23.693Z,10.20
2018-09-08T03:56:50.453Z,10.20
2018-09-08T03:59:17.007Z,10.20
2018-09-08T04:01:44.550Z,10.30
2018-09-08T04:04:12.225Z,10.20
2018-09-08T04:06:40.063Z,10.20
2018-09-08T04:09:08.769Z,10.10
2018-09-08T04:11:36.678Z,10.20
2018-09-08T04:14:04.424Z,10.10
2018-09-08T04:16:33.113Z,10.10
2018-09-08T04:19:00.813Z,10.20
2018-09-08T04:21:28.481Z,10.10
2018-09-08T04:23:56.226Z,10.10
2018-09-08T04:26:23.858Z,10.10
2018-09-08T04:28:51.569Z,10.10
2018-09-08T04:31:19.330Z,10.10
2018-09-08T04:33:47.023Z,10.10
2018-09-08T04:36:14.769Z,10.10
2018-09-08T04:38:42.629Z,10.10
2018-09-08T04:41:10.314Z,10.10
2018-09-08T04:43:38.093Z,10.10
2018-09-08T04:46:05.914Z,10.10
2018-09-08T04:48:33.754Z,10.10
2018-09-08T04:51:01.433Z,10.10
2018-09-08T04:53:29.149Z,10.10
2018-09-08T04:55:56.849Z,10.00
2018-09-08T04:58:24.692Z,10.00
2018-09-08T05:00:52.358Z,10.00
2018-09-08T05:03:20.080Z,10.00
2018-09-08T05:05:48.004Z,10.00
2018-09-08T05:08:15.725Z,10.00
2018-09-08T05:10:43.401Z,10.10
2018-09-08T05:13:11.110Z,10.10
2018-09-08T05:15:38.818Z,10.10
2018-09-08T05:18:06.619Z,10.20
2018-09-08T05:20:34.555Z,10.20
2018-09-08T05:23:02.433Z,10.20
2018-09-08T05:25:30.783Z,10.20
2018-09-08T05:27:59.409Z,10.30
2018-09-08T05:30:27.862Z,10.30
2018-09-08T05:32:55.646Z,10.30
2018-09-08T05:35:23.527Z,10.30
2018-09-08T05:37:51.267Z,10.30
2018-09-08T05:40:20.026Z,10.40
2018-09-08T05:42:47.801Z,10.40
2018-09-08T05:45:17.045Z,10.50
2018-09-08T05:47:44.798Z,10.50
2018-09-08T05:50:14.116Z,10.60
2018-09-08T05:52:41.898Z,10.70
2018-09-08T05:55:10.967Z,10.80
2018-09-08T05:57:40.550Z,11.00
2018-09-08T06:00:09.491Z,11.00
2018-09-08T06:02:38.700Z,11.10
2018-09-08T06:05:08.358Z,11.20
2018-09-08T06:07:37.343Z,11.20
2018-09-08T06:10:06.805Z,11.30
2018-09-08T06:12:36.006Z,11.30
2018-09-08T06:15:03.858Z,11.40
2018-09-08T06:17:31.557Z,11.50
2018-09-08T06:19:59.262Z,11.60
2018-09-08T06:22:26.941Z,11.70
2018-09-08T06:24:54.677Z,11.80
2018-09-08T06:27:22.342Z,12.00
2018-09-08T06:29:50.143Z,12.00
2018-09-08T06:32:17.808Z,12.10
2018-09-08T06:34:46.457Z,12.30
2018-09-08T06:37:14.374Z,12.40
2018-09-08T06:39:42.093Z,12.30
2018-09-08T06:42:09.741Z,12.40
2018-09-08T06:44:37.439Z,12.50
2018-09-08T06:47:05.192Z,12.60
2018-09-08T06:49:43.404Z,12.70
2018-09-08T06:52:11.105Z,12.80
2018-09-08T06:54:39.157Z,13.00
2018-09-08T06:57:06.951Z,13.20
2018-09-08T06:59:34.659Z,13.30
2018-09-08T07:02:02.351Z,13.40
2018-09-08T07:04:30.061Z,13.50
2018-09-08T07:06:57.814Z,13.60
2018-09-08T07:09:25.842Z,13.70
2018-09-08T07:11:53.502Z,13.90
2018-09-08T07:14:22.985Z,13.90
2018-09-08T07:16:50.665Z,14.00
2018-09-08T07:19:18.420Z,14.20
2018-09-08T07:21:46.082Z,14.40
2018-09-08T07:24:13.786Z,14.70
2018-09-08T07:26:42.515Z,14.80
2018-09-08T07:29:10.486Z,14.70
2018-09-08T07:31:38.181Z,14.60
2018-09-08T07:34:05.911Z,14.70
2018-09-08T07:36:39.114Z,14.80
2018-09-08T07:39:09.243Z,15.00
2018-09-08T07:41:37.862Z,15.10
2018-09-08T07:44:05.718Z,15.30
2018-09-08T07:46:33.437Z,15.40
2018-09-08T07:49:04.211Z,15.50
2018-09-08T07:51:31.977Z,15.70
2018-09-08T07:53:59.728Z,15.70
2018-09-08T07:56:27.382Z,15.70
2018-09-08T07:58:56.096Z,15.70
2018-09-08T08:01:24.058Z,15.70
2018-09-08T08:03:52.677Z,15.90
2018-09-08T08:06:23.394Z,16.00
2018-09-08T08:08:51.602Z,16.10
2018-09-08T08:11:19.303Z,16.20
2018-09-08T08:13:47.066Z,16.40
2018-09-08T08:16:17.181Z,16.50
2018-09-08T08:18:48.774Z,16.60
2018-09-08T08:21:20.062Z,16.90
2018-09-08T08:23:51.178Z,16.90
2018-09-08T08:26:22.905Z,17.00
2018-09-08T08:28:53.713Z,16.90
2018-09-08T08:31:24.988Z,17.00
2018-09-08T08:33:52.682Z,17.00
2018-09-08T08:36:23.782Z,16.90
2018-09-08T08:38:55.753Z,16.90
2018-09-08T08:41:25.316Z,17.20
2018-09-08T08:43:52.965Z,17.30
2018-09-08T08:46:20.657Z,17.20
2018-09-08T08:48:48.365Z,17.20
2018-09-08T08:51:31.111Z,17.20
2018-09-08T08:54:10.006Z,17.10
2018-09-08T08:56:38.596Z,17.20
2018-09-08T08:59:09.169Z,17.10
2018-09-08T09:01:39.744Z,17.20
2018-09-08T09:04:10.408Z,17.20
2018-09-08T09:06:49.411Z,17.40
2018-09-08T09:09:32.932Z,17.60
2018-09-08T09:12:21.766Z,17.90
2018-09-08T09:15:12.146Z,18.10
2018-09-08T09:18:01.315Z,18.10
2018-09-08T09:20:50.639Z,18.20
2018-09-08T09:23:45.548Z,18.10
2018-09-08T09:26:31.742Z,18.10
2018-09-08T09:29:17.567Z,18.00
2018-09-08T09:32:11.506Z,18.10
2018-09-08T09:34:58.884Z,18.10
2018-09-08T09:37:48.941Z,18.30
2018-09-08T09:40:37.335Z,18.40
2018-09-08T09:43:23.805Z,18.40
2018-09-08T09:46:12.361Z,18.40
2018-09-08T09:49:04.934Z,18.30
2018-09-08T09:51:37.421Z,18.20
2018-09-08T09:54:29.309Z,18.20
2018-09-08T09:57:20.105Z,18.40
2018-09-08T10:00:06.969Z,18.70
2018-09-08T10:02:54.732Z,18.70
2018-09-08T10:05:27.137Z,18.60
2018-09-08T10:08:00.436Z,18.80
2018-09-08T10:10:32.050Z,18.90
2018-09-08T10:13:03.495Z,19.10
2018-09-08T10:15:34.504Z,19.20
2018-09-08T10:18:05.593Z,19.30
2018-09-08T10:20:36.393Z,19.50
2018-09-08T10:23:07.901Z,19.50
2018-09-08T10:25:39.102Z,19.30
2018-09-08T10:28:10.522Z,19.30
2018-09-08T10:30:41.143Z,19.40
2018-09-08T10:33:12.772Z,19.20
2018-09-08T10:35:43.525Z,19.20
2018-09-08T10:38:13.387Z,19.50
2018-09-08T10:40:45.808Z,19.80
2018-09-08T10:43:16.372Z,19.90
2018-09-08T10:45:47.860Z,19.90
2018-09-08T10:48:17.872Z,19.80
2018-09-08T10:50:50.459Z,20.00
2018-09-08T10:53:18.258Z,19.80
2018-09-08T10:55:45.945Z,19.60
2018-09-08T10:58:13.606Z,19.50
2018-09-08T11:00:41.293Z,19.80
2018-09-08T11:03:10.830Z,20.00
2018-09-08T11:05:38.762Z,20.20
2018-09-08T11:08:06.709Z,20.00
2018-09-08T11:10:38.227Z,19.70
2018-09-08T11:13:08.540Z,19.40
2018-09-08T11:15:40.369Z,19.40
2018-09-08T11:18:08.014Z,19.90
2018-09-08T11:20:38.616Z,19.80
2018-09-08T11:23:15.781Z,19.90
2018-09-08T11:25:49.948Z,20.10
2018-09-08T11:28:22.007Z,20.20
2018-09-08T11:30:54.009Z,20.30
2018-09-08T11:33:22.705Z,20.20
2018-09-08T11:35:54.235Z,20.00
2018-09-08T11:38:22.081Z,20.20
2018-09-08T11:40:54.208Z,20.20
2018-09-08T11:43:28.528Z,20.10
2018-09-08T11:45:57.004Z,20.40
2018-09-08T11:48:29.170Z,20.90
2018-09-08T11:50:57.941Z,20.70
2018-09-08T11:53:30.378Z,20.80
2018-09-08T11:56:01.315Z,21.10
2018-09-08T11:58:38.324Z,21.20
2018-09-08T12:01:06.337Z,21.50
2018-09-08T12:03:34.930Z,21.60
2018-09-08T12:06:06.782Z,21.60
2018-09-08T12:08:40.650Z,21.80
2018-09-08T12:11:15.386Z,21.80
2018-09-08T12:13:49.533Z,21.50
2018-09-08T12:16:28.094Z,21.60
2018-09-08T12:18:59.910Z,21.80
2018-09-08T12:21:30.063Z,21.90
2018-09-08T12:24:01.029Z,22.20
2018-09-08T12:26:29.637Z,22.30
2018-09-08T12:29:06.693Z,22.60
2018-09-08T12:31:35.758Z,23.00
2018-09-08T12:34:22.923Z,23.20
2018-09-08T12:36:50.759Z,23.50
2018-09-08T12:39:21.009Z,23.70
2018-09-08T12:41:50.174Z,23.90
2018-09-08T12:44:23.679Z,23.90
2018-09-08T12:46:55.749Z,23.60
2018-09-08T12:49:30.766Z,23.30
2018-09-08T12:52:01.775Z,23.20
2018-09-08T12:54:43.838Z,23.50
2018-09-08T12:57:23.765Z,23.50
2018-09-08T12:59:54.161Z,23.90
2018-09-08T13:02:30.097Z,23.80
2018-09-08T13:05:04.076Z,23.60
2018-09-08T13:07:33.415Z,23.20
2018-09-08T13:10:11.784Z,23.50
2018-09-08T13:12:50.089Z,23.60
2018-09-08T13:15:31.192Z,23.60
2018-09-08T13:18:12.094Z,24.00
2018-09-08T13:20:54.712Z,24.50
2018-09-08T13:23:31.808Z,24.30
2018-09-08T13:26:10.032Z,24.00
2018-09-08T13:28:40.925Z,24.20
2018-09-08T13:31:12.326Z,24.50
2018-09-08T13:33:44.918Z,24.70
2018-09-08T13:36:15.179Z,24.80
2018-09-08T13:38:47.386Z,24.70
2018-09-08T13:41:19.457Z,24.80
2018-09-08T13:43:51.201Z,24.90
2018-09-08T13:46:23.475Z,25.20
2018-09-08T13:48:57.362Z,25.30
2018-09-08T13:51:27.364Z,25.50
2018-09-08T13:53:59.402Z,25.80
2018-09-08T13:56:31.171Z,26.60
2018-09-08T13:59:02.477Z,26.20
2018-09-08T14:01:37.876Z,26.20
2018-09-08T14:04:14.742Z,27.10
2018-09-08T14:06:42.662Z,28.50
2018-09-08T14:09:10.988Z,28.90
2018-09-08T14:11:42.955Z,28.30
2018-09-08T14:14:17.309Z,29.10
2018-09-08T14:16:50.214Z,30.60
2018-09-08T14:19:19.981Z,32.00
2018-09-08T14:21:51.980Z,32.60
2018-09-08T14:24:23.675Z,31.50
2018-09-08T14:26:58.639Z,30.30
2018-09-08T14:29:30.973Z,29.20
2018-09-08T14:32:03.988Z,28.10
2018-09-08T14:34:39.896Z,27.40
2018-09-08T14:37:17.024Z,27.60
2018-09-08T14:39:51.939Z,27.10
2018-09-08T14:42:24.191Z,26.30
2018-09-08T14:44:51.994Z,25.80
2018-09-08T14:47:19.740Z,27.60
2018-09-08T14:49:55.399Z,28.30
2018-09-08T14:52:26.300Z,28.60
2018-09-08T14:55:03.588Z,29.20
2018-09-08T14:57:35.118Z,30.90
2018-09-08T15:00:04.777Z,32.20
2018-09-08T15:02:39.521Z,31.10
2018-09-08T15:05:07.972Z,29.90
2018-09-08T15:07:40.158Z,28.30
2018-09-08T15:10:13.555Z,28.50
2018-09-08T15:12:43.519Z,28.70
2018-09-08T15:15:11.865Z,28.40
2018-09-08T15:17:44.323Z,27.30
2018-09-08T15:20:15.208Z,27.20
2018-09-08T15:22:45.405Z,28.10
2018-09-08T15:25:16.994Z,29.00
2018-09-08T15:27:49.477Z,28.60
2018-09-08T15:30:18.150Z,28.00
2018-09-08T15:32:45.838Z,27.70
2018-09-08T15:35:21.723Z,27.50
2018-09-08T15:37:53.334Z,26.60
2018-09-08T15:40:24.441Z,25.90
2018-09-08T15:42:56.437Z,25.30
2018-09-08T15:45:24.239Z,24.70
2018-09-08T15:47:55.012Z,24.30
2018-09-08T15:50:25.087Z,24.30
2018-09-08T15:52:55.154Z,24.20
2018-09-08T15:55:23.611Z,24.10
2018-09-08T15:57:55.893Z,24.40
2018-09-08T16:00:31.370Z,24.40
2018-09-08T16:03:01.134Z,24.50
2018-09-08T16:05:29.589Z,24.80
2018-09-08T16:07:57.812Z,24.90
2018-09-08T16:10:26.867Z,24.80
2018-09-08T16:13:06.804Z,25.10
2018-09-08T16:15:38.508Z,24.90
2018-09-08T16:18:07.267Z,24.10
2018-09-08T16:20:38.873Z,23.60
2018-09-08T16:23:09.329Z,23.50
2018-09-08T16:25:40.582Z,23.20
2018-09-08T16:28:08.962Z,23.10
2018-09-08T16:30:38.246Z,23.00
2018-09-08T16:33:05.946Z,22.80
2018-09-08T16:35:37.178Z,22.50
2018-09-08T16:38:09.381Z,22.00
2018-09-08T16:40:40.537Z,21.80
2018-09-08T16:43:10.642Z,21.70
2018-09-08T16:45:40.578Z,21.40
2018-09-08T16:48:11.490Z,21.30
2018-09-08T16:50:42.218Z,21.20
2018-09-08T16:53:13.767Z,21.10
2018-09-08T16:55:45.657Z,21.00
2018-09-08T16:58:17.328Z,21.00
2018-09-08T17:00:47.651Z,21.00
2018-09-08T17:03:19.749Z,21.20
2018-09-08T17:05:50.857Z,21.30
2018-09-08T17:08:21.940Z,21.50
2018-09-08T17:10:53.104Z,21.70
2018-09-08T17:13:25.212Z,21.70
2018-09-08T17:15:59.766Z,21.60
2018-09-08T17:18:31.544Z,21.50
2018-09-08T17:21:01.405Z,21.50
2018-09-08T17:23:31.714Z,21.30
2018-09-08T17:26:03.833Z,21.20
2018-09-08T17:28:35.728Z,21.10
2018-09-08T17:31:07.683Z,21.00
2018-09-08T17:33:37.915Z,20.80
2018-09-08T17:36:10.075Z,20.70
2018-09-08T17:38:40.217Z,20.60
2018-09-08T17:41:10.938Z,20.40
2018-09-08T17:43:42.992Z,20.30
2018-09-08T17:46:14.995Z,20.10
2018-09-08T17:48:46.788Z,20.00
2018-09-08T17:51:33.550Z,20.00
2018-09-08T17:54:18.578Z,19.90
2018-09-08T17:56:57.960Z,19.70
2018-09-08T17:59:25.643Z,19.60
2018-09-08T18:01:54.566Z,19.50
2018-09-08T18:04:22.430Z,19.50
2018-09-08T18:06:50.334Z,19.40
2018-09-08T18:09:18.005Z,19.30
2018-09-08T18:11:45.705Z,19.10
2018-09-08T18:14:13.514Z,19.10
2018-09-08T18:19:06.841Z,19.00
2018-09-08T18:21:34.623Z,19.00
2018-09-08T18:24:02.398Z,19.00
2018-09-08T18:26:30.221Z,18.90
2018-09-08T18:28:58.134Z,18.90
2018-09-08T18:31:26.619Z,18.90
2018-09-08T18:33:54.442Z,18.80
2018-09-08T18:36:23.666Z,18.70
2018-09-08T18:38:51.584Z,18.60
2018-09-08T18:41:19.286Z,18.50
2018-09-08T18:43:46.998Z,18.40
2018-09-08T18:46:14.689Z,18.30
2018-09-08T18:48:45.253Z,18.20
2018-09-08T18:51:13.804Z,18.20
2018-09-08T18:53:41.629Z,18.10
2018-09-08T18:56:09.261Z,18.10
2018-09-08T18:58:36.998Z,18.00
2018-09-08T19:01:04.717Z,17.90
2018-09-08T19:03:32.476Z,17.90
2018-09-08T19:06:00.138Z,17.80
2018-09-08T19:08:33.601Z,17.70
2018-09-08T19:11:01.339Z,17.60
2018-09-08T19:13:31.980Z,17.50
2018-09-08T19:15:59.670Z,17.50
2018-09-08T19:18:27.531Z,17.40
2018-09-08T19:20:55.254Z,17.40
2018-09-08T19:23:27.156Z,17.30
2018-09-08T19:25:55.750Z,17.20
2018-09-08T19:28:23.434Z,17.20
2018-09-08T19:30:51.110Z,17.20
2018-09-08T19:33:18.870Z,17.10
2018-09-08T19:35:48.098Z,17.10
2018-09-08T19:38:15.813Z,17.00
2018-09-08T19:40:44.933Z,17.00
2018-09-08T19:43:12.640Z,16.90
2018-09-08T19:45:40.298Z,17.00
2018-09-08T19:48:11.241Z,16.90
2018-09-08T19:50:40.346Z,16.90
2018-09-08T19:53:13.672Z,16.80
2018-09-08T19:55:41.366Z,16.80
2018-09-08T19:58:15.773Z,16.60
2018-09-08T20:00:46.275Z,16.60
2018-09-08T20:03:14.101Z,16.60
2018-09-08T20:05:41.917Z,16.60
2018-09-08T20:08:11.197Z,16.50
2018-09-08T20:10:40.270Z,16.50
2018-09-08T20:13:08.058Z,16.50
2018-09-08T20:15:37.829Z,16.50
2018-09-08T20:18:05.556Z,16.50
2018-09-08T20:20:33.237Z,16.50
2018-09-08T20:23:05.342Z,16.50
2018-09-08T20:25:35.176Z,16.50
2018-09-08T20:28:04.877Z,16.40
2018-09-08T20:30:32.661Z,16.40
2018-09-08T20:33:00.365Z,16.40
2018-09-08T20:35:28.102Z,16.40
2018-09-08T20:37:55.822Z,16.30
2018-09-08T20:40:23.513Z,16.30
2018-09-08T20:42:51.549Z,16.30
2018-09-08T20:45:20.571Z,16.30
2018-09-08T20:47:51.264Z,16.20
2018-09-08T20:50:19.364Z,16.20
2018-09-08T20:52:46.914Z,16.20
2018-09-08T20:55:14.654Z,16.20
2018-09-08T20:57:42.313Z,16.10
2018-09-08T21:00:11.703Z,16.10
2018-09-08T21:02:41.357Z,16.10
2018-09-08T21:05:09.169Z,16.10
2018-09-08T21:07:37.476Z,16.10
2018-09-08T21:10:05.285Z,16.10
2018-09-08T21:12:33.277Z,16.10
2018-09-08T21:15:01.214Z,16.00
2018-09-08T21:17:28.989Z,16.10
2018-09-08T21:20:02.723Z,16.00
2018-09-08T21:22:32.664Z,16.00
2018-09-08T21:25:01.858Z,15.90
2018-09-08T21:27:29.653Z,15.90
2018-09-08T21:29:58.042Z,15.90
2018-09-08T21:32:26.485Z,15.90
2018-09-08T21:34:54.163Z,15.90
2018-09-08T21:37:21.915Z,15.90
2018-09-08T21:39:49.713Z,15.90
2018-09-08T21:42:17.409Z,15.90
2018-09-08T21:44:45.123Z,15.80
2018-09-08T21:47:14.732Z,15.80
2018-09-08T21:49:44.621Z,15.70
2018-09-08T21:52:12.373Z,15.80
2018-09-08T21:54:40.066Z,15.80
2018-09-08T21:57:07.754Z,15.70
2018-09-08T21:59:35.421Z,15.80
2018-09-08T22:02:03.176Z,15.70
2018-09-08T22:04:31.015Z,15.70
2018-09-08T22:06:58.714Z,15.70
2018-09-08T22:09:26.457Z,15.70
2018-09-08T22:11:54.137Z,15.70
2018-09-08T22:14:21.893Z,15.70
2018-09-08T22:16:49.565Z,15.90
2018-09-08T22:19:17.277Z,15.80
2018-09-08T22:21:44.990Z,15.70
2018-09-08T22:24:12.666Z,15.70
2018-09-08T22:26:40.642Z,15.60
2018-09-08T22:29:08.311Z,15.50
2018-09-08T22:31:36.161Z,15.40
2018-09-08T22:34:03.841Z,15.40
2018-09-08T22:36:31.613Z,15.40
2018-09-08T22:38:59.451Z,15.30
2018-09-08T22:41:27.117Z,15.40
2018-09-08T22:43:54.788Z,15.40
2018-09-08T22:46:22.457Z,15.50
2018-09-08T22:48:50.416Z,15.50
2018-09-08T22:51:18.117Z,15.50
2018-09-08T22:53:47.963Z,15.40
2018-09-08T22:56:15.728Z,15.40
2018-09-08T22:58:43.391Z,15.30
2018-09-08T23:01:12.974Z,15.40
2018-09-08T23:03:40.768Z,15.30
2018-09-08T23:06:08.574Z,15.30
2018-09-08T23:08:38.463Z,15.30
2018-09-08T23:11:06.241Z,15.30
2018-09-08T23:13:33.905Z,15.30
2018-09-08T23:16:01.739Z,15.30
2018-09-08T23:18:29.433Z,15.20
2018-09-08T23:20:57.158Z,15.30
2018-09-08T23:23:25.819Z,15.20
2018-09-08T23:25:53.482Z,15.20
2018-09-08T23:28:21.233Z,15.10
2018-09-08T23:30:48.911Z,15.00
2018-09-08T23:33:21.246Z,15.00
2018-09-08T23:35:49.034Z,15.00
2018-09-08T23:38:16.742Z,15.00
2018-09-08T23:40:44.421Z,15.00
2018-09-08T23:43:12.118Z,14.90
2018-09-08T23:45:39.803Z,14.90
2018-09-08T23:48:07.493Z,14.90
2018-09-08T23:50:35.261Z,14.90
2018-09-08T23:53:02.901Z,14.90
2018-09-08T23:55:30.614Z,14.90
2018-09-08T23:57:58.302Z,14.80
